createdAt,value
2022-10-01T00:01:19.247Z,99730.28
2022-10-01T00:03:47.844Z,99748.41
2022-10-01T00:06:18.234Z,99830.38
2022-10-01T00:08:48.681Z,99865.88
2022-10-01T00:11:22.254Z,99793.66
2022-10-01T00:13:50.318Z,99740.97
2022-10-01T00:16:20.586Z,99722.88
2022-10-01T00:18:48.753Z,99727.41
2022-10-01T00:21:21.668Z,99739.00
2022-10-01T00:23:57.407Z,99739.50
2022-10-01T00:26:27.311Z,99741.41
2022-10-01T00:28:57.950Z,99755.34
2022-10-01T00:31:25.599Z,99744.75
2022-10-01T00:33:58.306Z,99742.94
2022-10-01T00:36:26.673Z,99737.41
2022-10-01T00:38:58.616Z,99733.16
2022-10-01T00:41:31.716Z,99732.34
2022-10-01T00:44:02.406Z,99739.16
2022-10-01T00:46:41.781Z,99746.06
2022-10-01T00:49:20.523Z,99732.09
2022-10-01T00:51:52.797Z,99724.81
2022-10-01T00:54:25.328Z,99734.59
2022-10-01T00:56:54.779Z,99727.44
2022-10-01T00:59:22.155Z,99727.44
2022-10-01T01:01:49.790Z,99717.75
2022-10-01T01:04:17.504Z,99719.41
2022-10-01T01:06:53.754Z,99729.69
2022-10-01T01:09:23.171Z,99731.47
2022-10-01T01:11:58.453Z,99723.88
2022-10-01T01:14:54.391Z,99729.09
2022-10-01T01:17:53.607Z,99733.41
2022-10-01T01:20:54.931Z,99733.53
2022-10-01T01:23:37.348Z,99729.91
2022-10-01T01:26:44.504Z,99729.25
2022-10-01T01:29:19.954Z,99747.63
2022-10-01T01:31:48.690Z,99734.72
2022-10-01T01:34:23.520Z,99737.28
2022-10-01T01:36:58.556Z,99723.31
2022-10-01T01:39:27.057Z,99727.28
2022-10-01T01:41:59.415Z,99732.53
2022-10-01T01:44:32.021Z,99731.03
2022-10-01T01:47:02.028Z,99735.56
2022-10-01T01:49:29.854Z,99724.97
2022-10-01T01:52:04.435Z,99725.03
2022-10-01T01:54:35.675Z,99720.66
2022-10-01T01:57:04.156Z,99706.53
2022-10-01T01:59:33.826Z,99704.50
2022-10-01T02:02:02.159Z,99703.78
2022-10-01T02:04:35.606Z,99700.12
2022-10-01T02:07:47.653Z,99698.94
2022-10-01T02:10:47.173Z,99688.78
2022-10-01T02:13:48.130Z,99681.69
2022-10-01T02:16:53.453Z,99681.84
2022-10-01T02:19:30.347Z,99698.66
2022-10-01T02:22:04.539Z,99705.66
2022-10-01T02:25:11.439Z,99712.59
2022-10-01T02:27:44.515Z,99720.25
2022-10-01T02:30:12.526Z,99716.91
2022-10-01T02:32:42.640Z,99702.22
2022-10-01T02:35:11.980Z,99709.63
2022-10-01T02:37:40.802Z,99719.81
2022-10-01T02:40:14.636Z,99712.06
2022-10-01T02:42:53.501Z,99721.25
2022-10-01T02:45:25.770Z,99719.94
2022-10-01T02:47:57.820Z,99712.69
2022-10-01T02:50:29.622Z,99708.44
2022-10-01T02:53:05.404Z,99719.63
2022-10-01T02:55:37.951Z,99719.78
2022-10-01T02:58:05.916Z,99724.94
2022-10-01T03:00:33.580Z,99732.03
2022-10-01T03:03:00.906Z,99727.37
2022-10-01T03:05:28.806Z,99728.31
2022-10-01T03:07:56.115Z,99723.25
2022-10-01T03:10:23.421Z,99714.53
2022-10-01T03:12:51.016Z,99707.59
2022-10-01T03:15:19.372Z,99703.91
2022-10-01T03:17:53.637Z,99706.28
2022-10-01T03:20:21.264Z,99720.66
2022-10-01T03:22:48.648Z,99714.69
2022-10-01T03:25:16.210Z,99727.00
2022-10-01T03:27:44.100Z,99736.94
2022-10-01T03:30:11.838Z,99751.97
2022-10-01T03:32:39.397Z,99772.59
2022-10-01T03:35:07.450Z,99765.06
2022-10-01T03:37:34.734Z,99769.62
2022-10-01T03:40:02.168Z,99772.97
2022-10-01T03:42:29.708Z,99768.28
2022-10-01T03:44:57.009Z,99753.38
2022-10-01T03:47:24.370Z,99744.09
2022-10-01T03:49:51.992Z,99748.13
2022-10-01T03:52:20.387Z,99744.69
2022-10-01T03:54:47.699Z,99749.72
2022-10-01T03:57:15.408Z,99741.03
2022-10-01T03:59:42.704Z,99730.12
2022-10-01T04:02:10.263Z,99717.94
2022-10-01T04:04:38.087Z,99716.94
2022-10-01T04:07:05.380Z,99711.66
2022-10-01T04:09:32.669Z,99717.16
2022-10-01T04:12:00.395Z,99711.84
2022-10-01T04:14:27.777Z,99712.53
2022-10-01T04:16:55.067Z,99713.53
2022-10-01T04:19:22.700Z,99705.28
2022-10-01T04:21:49.997Z,99711.44
2022-10-01T04:24:17.310Z,99713.34
2022-10-01T04:26:44.868Z,99711.28
2022-10-01T04:29:12.163Z,99701.56
2022-10-01T04:31:40.298Z,99707.78
2022-10-01T04:34:08.029Z,99714.06
2022-10-01T04:36:35.312Z,99710.50
2022-10-01T04:39:03.098Z,99704.22
2022-10-01T04:41:31.785Z,99713.91
2022-10-01T04:43:59.855Z,99705.72
2022-10-01T04:46:30.050Z,99710.87
2022-10-01T04:48:58.253Z,99723.34
2022-10-01T04:51:25.743Z,99715.53
2022-10-01T04:53:53.148Z,99713.78
2022-10-01T04:56:20.707Z,99719.69
2022-10-01T04:58:49.097Z,99713.69
2022-10-01T05:01:16.447Z,99717.94
2022-10-01T05:03:44.024Z,99730.78
2022-10-01T05:06:11.349Z,99731.88
2022-10-01T05:08:39.098Z,99739.81
2022-10-01T05:11:06.666Z,99755.72
2022-10-01T05:13:33.968Z,99776.56
2022-10-01T05:16:03.012Z,99779.19
2022-10-01T05:18:30.669Z,99767.59
2022-10-01T05:20:57.962Z,99778.97
2022-10-01T05:23:25.347Z,99777.97
2022-10-01T05:25:52.917Z,99771.66
2022-10-01T05:28:22.603Z,99762.59
2022-10-01T05:30:51.068Z,99755.59
2022-10-01T05:33:18.783Z,99753.81
2022-10-01T05:35:46.088Z,99738.16
2022-10-01T05:38:14.402Z,99742.44
2022-10-01T05:40:45.894Z,99737.00
2022-10-01T05:43:13.673Z,99760.13
2022-10-01T05:45:41.612Z,99756.44
2022-10-01T05:48:09.809Z,99764.03
2022-10-01T05:50:42.452Z,99760.53
2022-10-01T05:53:11.270Z,99759.09
2022-10-01T05:55:38.746Z,99756.31
2022-10-01T05:58:10.345Z,99748.72
2022-10-01T06:00:38.959Z,99734.94
2022-10-01T06:03:07.824Z,99713.69
2022-10-01T06:05:35.807Z,99725.09
2022-10-01T06:08:05.574Z,99723.47
2022-10-01T06:10:33.163Z,99714.56
2022-10-01T06:13:01.804Z,99702.97
2022-10-01T06:15:29.607Z,99698.88
2022-10-01T06:18:01.144Z,99691.41
2022-10-01T06:20:28.460Z,99696.09
2022-10-01T06:22:57.349Z,99686.16
2022-10-01T06:25:26.100Z,99694.09
2022-10-01T06:27:58.243Z,99707.62
2022-10-01T06:30:27.711Z,99727.37
2022-10-01T06:33:05.445Z,99741.91
2022-10-01T06:35:34.447Z,99736.66
2022-10-01T06:38:02.402Z,99737.38
2022-10-01T06:40:30.616Z,99727.41
2022-10-01T06:42:58.815Z,99723.81
2022-10-01T06:45:27.773Z,99729.31
2022-10-01T06:47:56.618Z,99729.25
2022-10-01T06:50:24.900Z,99733.75
2022-10-01T06:52:52.766Z,99737.78
2022-10-01T06:55:22.208Z,99742.87
2022-10-01T06:57:58.332Z,99741.50
2022-10-01T07:00:26.706Z,99735.16
2022-10-01T07:02:55.693Z,99740.50
2022-10-01T07:05:23.918Z,99729.63
2022-10-01T07:07:51.614Z,99729.56
2022-10-01T07:10:20.938Z,99722.47
2022-10-01T07:12:51.661Z,99720.34
2022-10-01T07:15:22.719Z,99706.00
2022-10-01T07:17:50.906Z,99714.25
2022-10-01T07:20:19.887Z,99706.13
2022-10-01T07:22:48.582Z,99719.03
2022-10-01T07:25:15.946Z,99719.25
2022-10-01T07:27:43.399Z,99721.66
2022-10-01T07:30:11.339Z,99710.63
2022-10-01T07:32:38.700Z,99713.78
2022-10-01T07:35:06.798Z,99704.47
2022-10-01T07:37:34.444Z,99696.06
2022-10-01T07:40:07.136Z,99691.75
2022-10-01T07:42:35.806Z,99689.81
2022-10-01T07:45:06.738Z,99695.97
2022-10-01T07:47:34.154Z,99700.94
2022-10-01T07:50:01.997Z,99699.28
2022-10-01T07:52:29.296Z,99707.97
2022-10-01T07:54:56.585Z,99711.31
2022-10-01T07:57:24.131Z,99704.28
2022-10-01T07:59:55.712Z,99706.00
2022-10-01T08:02:23.786Z,99700.53
2022-10-01T08:05:10.120Z,99708.12
2022-10-01T08:07:37.395Z,99704.28
2022-10-01T08:10:05.524Z,99704.97
2022-10-01T08:12:32.833Z,99703.31
2022-10-01T08:15:02.143Z,99702.78
2022-10-01T08:17:30.117Z,99696.87
2022-10-01T08:19:57.403Z,99685.50
2022-10-01T08:22:24.696Z,99704.63
2022-10-01T08:24:52.246Z,99704.78
2022-10-01T08:27:19.652Z,99706.47
2022-10-01T08:29:47.058Z,99688.59
2022-10-01T08:32:14.780Z,99670.38
2022-10-01T08:34:42.064Z,99668.78
2022-10-01T08:37:09.339Z,99670.47
2022-10-01T08:39:37.170Z,99664.28
2022-10-01T08:42:19.684Z,99664.81
2022-10-01T08:44:47.869Z,99663.47
2022-10-01T08:47:34.917Z,99663.59
2022-10-01T08:50:17.147Z,99659.03
2022-10-01T08:52:52.463Z,99651.56
2022-10-01T08:55:26.666Z,99658.16
2022-10-01T08:57:57.057Z,99663.97
2022-10-01T09:00:32.691Z,99667.69
2022-10-01T09:03:04.738Z,99660.03
2022-10-01T09:06:11.510Z,99655.50
2022-10-01T09:09:03.896Z,99657.00
2022-10-01T09:11:53.455Z,99659.56
2022-10-01T09:14:36.324Z,99647.56
2022-10-01T09:17:41.587Z,99660.81
2022-10-01T09:20:25.729Z,99657.19
2022-10-01T09:23:08.518Z,99655.34
2022-10-01T09:25:37.471Z,99650.72
2022-10-01T09:28:31.977Z,99647.41
2022-10-01T09:31:06.645Z,99644.53
2022-10-01T09:33:37.481Z,99645.13
2022-10-01T09:36:30.295Z,99636.94
2022-10-01T09:39:17.461Z,99635.69
2022-10-01T09:41:46.081Z,99644.75
2022-10-01T09:44:19.145Z,99632.69
2022-10-01T09:46:46.734Z,99633.22
2022-10-01T09:49:35.432Z,99643.59
2022-10-01T09:52:11.007Z,99630.06
2022-10-01T09:54:47.135Z,99633.66
2022-10-01T09:57:21.977Z,99628.84
2022-10-01T10:00:10.608Z,99615.75
2022-10-01T10:02:48.173Z,99615.09
2022-10-01T10:05:17.607Z,99609.34
2022-10-01T10:07:48.882Z,99607.34
2022-10-01T10:10:25.545Z,99617.06
2022-10-01T10:13:02.021Z,99613.37
2022-10-01T10:15:32.517Z,99602.97
2022-10-01T10:18:30.063Z,99602.84
2022-10-01T10:20:59.204Z,99605.41
2022-10-01T10:23:28.892Z,99607.25
2022-10-01T10:26:02.706Z,99604.97
2022-10-01T10:28:43.641Z,99597.22
2022-10-01T10:31:17.055Z,99596.66
2022-10-01T10:33:57.390Z,99588.63
2022-10-01T10:36:28.941Z,99586.03
2022-10-01T10:38:57.309Z,99593.16
2022-10-01T10:41:26.537Z,99585.22
2022-10-01T10:44:06.582Z,99585.25
2022-10-01T10:46:36.186Z,99587.50
2022-10-01T10:49:18.584Z,99579.34
2022-10-01T10:51:53.697Z,99572.53
2022-10-01T10:54:25.726Z,99572.53
2022-10-01T10:57:14.533Z,99563.12
2022-10-01T10:59:42.146Z,99560.63
2022-10-01T11:02:16.805Z,99557.50
2022-10-01T11:04:47.130Z,99554.75
2022-10-01T11:07:19.752Z,99554.09
2022-10-01T11:10:04.066Z,99543.41
2022-10-01T11:12:50.408Z,99535.06
2022-10-01T11:15:46.963Z,99528.00
2022-10-01T11:18:23.900Z,99523.69
2022-10-01T11:21:16.443Z,99509.78
2022-10-01T11:23:56.236Z,99510.59
2022-10-01T11:26:30.460Z,99495.66
2022-10-01T11:29:04.456Z,99502.34
2022-10-01T11:31:38.208Z,99497.44
2022-10-01T11:34:39.923Z,99481.91
2022-10-01T11:37:27.814Z,99479.66
2022-10-01T11:39:58.118Z,99481.28
2022-10-01T11:42:34.706Z,99479.56
2022-10-01T11:45:21.555Z,99475.19
2022-10-01T11:47:52.988Z,99462.84
2022-10-01T11:50:25.767Z,99460.44
2022-10-01T11:53:12.742Z,99460.25
2022-10-01T11:56:11.064Z,99462.88
2022-10-01T11:58:52.942Z,99459.66
2022-10-01T12:01:43.408Z,99457.94
2022-10-01T12:04:23.407Z,99453.25
2022-10-01T12:07:02.700Z,99458.13
2022-10-01T12:09:44.958Z,99446.59
2022-10-01T12:12:17.215Z,99453.44
2022-10-01T12:14:51.708Z,99450.88
2022-10-01T12:17:23.537Z,99451.69
2022-10-01T12:19:51.150Z,99446.50
2022-10-01T12:22:25.594Z,99451.53
2022-10-01T12:24:53.883Z,99443.63
2022-10-01T12:27:44.317Z,99452.91
2022-10-01T12:30:20.635Z,99449.00
2022-10-01T12:32:58.088Z,99449.50
2022-10-01T12:35:36.032Z,99441.91
2022-10-01T12:38:21.189Z,99436.72
2022-10-01T12:41:14.403Z,99447.09
2022-10-01T12:43:44.547Z,99452.37
2022-10-01T12:46:25.205Z,99450.81
2022-10-01T12:49:14.550Z,99438.44
2022-10-01T12:51:48.755Z,99432.66
2022-10-01T12:54:24.244Z,99420.69
2022-10-01T12:57:26.882Z,99419.34
2022-10-01T13:00:24.883Z,99406.44
2022-10-01T13:03:29.492Z,99398.94
2022-10-01T13:08:37.256Z,99386.50
2022-10-01T13:11:35.077Z,99378.91
2022-10-01T13:14:04.234Z,99382.63
2022-10-01T13:16:44.524Z,99384.72
2022-10-01T13:19:14.903Z,99369.03
2022-10-01T13:21:45.061Z,99365.16
2022-10-01T13:25:00.798Z,99368.28
2022-10-01T13:27:45.270Z,99362.25
2022-10-01T13:30:24.164Z,99356.19
2022-10-01T13:32:54.100Z,99342.62
2022-10-01T13:35:27.933Z,99325.03
2022-10-01T13:37:57.025Z,99324.88
2022-10-01T13:40:30.386Z,99358.84
2022-10-01T13:43:03.536Z,99365.34
2022-10-01T13:45:37.141Z,99353.03
2022-10-01T13:48:10.263Z,99365.66
2022-10-01T13:50:54.622Z,99364.78
2022-10-01T13:53:25.220Z,99362.69
2022-10-01T13:55:53.945Z,99362.03
2022-10-01T13:58:30.278Z,99353.37
2022-10-01T14:01:00.835Z,99344.81
2022-10-01T14:03:38.639Z,99343.31
2022-10-01T14:06:08.927Z,99342.56
2022-10-01T14:08:47.345Z,99344.81
2022-10-01T14:11:36.981Z,99348.97
2022-10-01T14:14:31.166Z,99355.16
2022-10-01T14:16:59.217Z,99355.91
2022-10-01T14:19:27.530Z,99351.22
2022-10-01T14:22:04.084Z,99353.78
2022-10-01T14:24:47.779Z,99351.00
2022-10-01T14:27:23.413Z,99358.53
2022-10-01T14:30:26.360Z,99350.25
2022-10-01T14:33:12.248Z,99346.91
2022-10-01T14:35:58.200Z,99346.69
2022-10-01T14:38:25.497Z,99346.06
2022-10-01T14:40:53.788Z,99338.25
2022-10-01T14:43:26.362Z,99335.75
2022-10-01T14:46:02.504Z,99331.59
2022-10-01T14:48:35.159Z,99332.50
2022-10-01T14:51:05.665Z,99332.72
2022-10-01T14:53:37.573Z,99332.00
2022-10-01T14:56:05.903Z,99328.56
2022-10-01T14:58:36.777Z,99330.59
2022-10-01T15:01:05.071Z,99329.44
2022-10-01T15:03:38.200Z,99334.06
2022-10-01T15:06:12.621Z,99342.69
2022-10-01T15:08:45.064Z,99348.97
2022-10-01T15:11:22.197Z,99342.91
2022-10-01T15:13:52.026Z,99343.59
2022-10-01T15:16:22.485Z,99350.03
2022-10-01T15:18:53.658Z,99352.72
2022-10-01T15:21:35.607Z,99347.00
2022-10-01T15:24:05.204Z,99355.22
2022-10-01T15:26:33.108Z,99366.94
2022-10-01T15:29:21.041Z,99367.91
2022-10-01T15:31:50.521Z,99371.75
2022-10-01T15:34:19.553Z,99371.16
2022-10-01T15:36:48.177Z,99363.75
2022-10-01T15:39:29.916Z,99372.62
2022-10-01T15:41:57.619Z,99380.28
2022-10-01T15:44:38.721Z,99377.66
2022-10-01T15:47:23.491Z,99374.91
2022-10-01T15:50:18.128Z,99365.47
2022-10-01T15:52:54.389Z,99360.75
2022-10-01T15:56:06.192Z,99372.88
2022-10-01T15:58:39.074Z,99375.75
2022-10-01T16:01:12.340Z,99372.72
2022-10-01T16:03:42.265Z,99372.81
2022-10-01T16:06:29.735Z,99375.03
2022-10-01T16:09:06.209Z,99370.22
2022-10-01T16:11:53.654Z,99371.81
2022-10-01T16:14:43.823Z,99374.91
2022-10-01T16:17:17.128Z,99367.22
2022-10-01T16:19:48.499Z,99373.06
2022-10-01T16:22:22.218Z,99379.69
2022-10-01T16:24:52.123Z,99375.03
2022-10-01T16:27:21.961Z,99380.62
2022-10-01T16:30:02.706Z,99382.19
2022-10-01T16:32:32.968Z,99379.91
2022-10-01T16:35:20.281Z,99377.59
2022-10-01T16:37:50.061Z,99382.81
2022-10-01T16:40:19.134Z,99383.34
2022-10-01T16:42:46.950Z,99386.16
2022-10-01T16:45:19.905Z,99380.78
2022-10-01T16:47:47.503Z,99370.34
2022-10-01T16:50:17.026Z,99377.72
2022-10-01T16:52:44.881Z,99375.31
2022-10-01T16:55:26.561Z,99375.53
2022-10-01T16:57:57.042Z,99377.41
2022-10-01T17:00:26.052Z,99379.84
2022-10-01T17:02:54.147Z,99372.75
2022-10-01T17:05:27.281Z,99380.56
2022-10-01T17:07:57.659Z,99367.16
2022-10-01T17:10:25.439Z,99373.19
2022-10-01T17:12:53.081Z,99366.25
2022-10-01T17:15:23.239Z,99364.50
2022-10-01T17:17:50.547Z,99357.84
2022-10-01T17:20:18.001Z,99360.87
2022-10-01T17:22:46.163Z,99357.91
2022-10-01T17:25:21.552Z,99356.88
2022-10-01T17:27:49.683Z,99355.75
2022-10-01T17:30:17.205Z,99348.81
2022-10-01T17:32:44.818Z,99349.78
2022-10-01T17:35:14.289Z,99355.78
2022-10-01T17:37:42.091Z,99358.25
2022-10-01T17:40:10.555Z,99354.13
2022-10-01T17:42:38.380Z,99365.31
2022-10-01T17:45:08.800Z,99360.31
2022-10-01T17:47:36.662Z,99366.56
2022-10-01T17:50:04.561Z,99372.88
2022-10-01T17:52:32.533Z,99371.28
2022-10-01T17:54:59.828Z,99372.88
2022-10-01T17:57:27.423Z,99380.94
2022-10-01T17:59:54.786Z,99373.56
2022-10-01T18:02:41.054Z,99384.81
2022-10-01T18:05:12.159Z,99390.41
2022-10-01T18:07:39.525Z,99389.44
2022-10-01T18:10:09.498Z,99387.50
2022-10-01T18:12:37.157Z,99383.72
2022-10-01T18:15:04.845Z,99376.81
2022-10-01T18:17:33.218Z,99383.03
2022-10-01T18:20:00.894Z,99390.50
2022-10-01T18:22:28.627Z,99404.44
2022-10-01T18:24:56.167Z,99416.06
2022-10-01T18:27:23.751Z,99424.06
2022-10-01T18:29:51.048Z,99423.88
2022-10-01T18:32:26.281Z,99428.31
2022-10-01T18:34:55.851Z,99430.19
2022-10-01T18:37:43.989Z,99434.16
2022-10-01T18:40:19.308Z,99442.13
2022-10-01T18:42:49.421Z,99446.81
2022-10-01T18:45:24.566Z,99446.03
2022-10-01T18:48:16.296Z,99445.50
2022-10-01T18:50:50.212Z,99454.41
2022-10-01T18:53:40.500Z,99453.94
2022-10-01T18:56:36.390Z,99450.50
2022-10-01T18:59:21.877Z,99442.44
2022-10-01T19:01:56.537Z,99451.69
2022-10-01T19:04:26.862Z,99457.50
2022-10-01T19:07:11.663Z,99467.37
2022-10-01T19:09:44.033Z,99473.69
2022-10-01T19:12:33.275Z,99467.69
2022-10-01T19:15:04.648Z,99465.59
2022-10-01T19:17:40.111Z,99469.31
2022-10-01T19:20:26.241Z,99468.06
2022-10-01T19:23:06.652Z,99453.19
2022-10-01T19:25:48.650Z,99463.53
2022-10-01T19:28:37.852Z,99463.62
2022-10-01T19:31:22.365Z,99468.31
2022-10-01T19:34:01.233Z,99464.81
2022-10-01T19:36:34.811Z,99468.00
2022-10-01T19:39:05.111Z,99480.72
2022-10-01T19:41:49.086Z,99487.62
2022-10-01T19:44:26.047Z,99491.37
2022-10-01T19:46:56.393Z,99495.72
2022-10-01T19:49:29.091Z,99492.22
2022-10-01T19:51:58.397Z,99497.28
2022-10-01T19:54:34.583Z,99488.38
2022-10-01T19:57:13.284Z,99498.63
2022-10-01T19:59:41.061Z,99489.44
2022-10-01T20:02:36.401Z,99498.06
2022-10-01T20:05:07.066Z,99499.69
2022-10-01T20:07:44.873Z,99492.53
2022-10-01T20:10:20.651Z,99495.00
2022-10-01T20:13:01.958Z,99502.16
2022-10-01T20:15:57.425Z,99498.34
2022-10-01T20:18:58.801Z,99492.94
2022-10-01T20:21:33.144Z,99503.97
2022-10-01T20:24:07.379Z,99499.50
2022-10-01T20:26:43.878Z,99505.87
2022-10-01T20:29:27.405Z,99499.22
2022-10-01T20:32:01.690Z,99501.19
2022-10-01T20:34:56.377Z,99504.19
2022-10-01T20:38:08.603Z,99506.37
2022-10-01T20:40:49.788Z,99513.69
2022-10-01T20:43:22.311Z,99519.72
2022-10-01T20:45:51.921Z,99519.59
2022-10-01T20:48:22.961Z,99516.22
2022-10-01T20:50:58.411Z,99517.19
2022-10-01T20:53:39.114Z,99521.84
2022-10-01T20:56:16.696Z,99534.06
2022-10-01T20:58:54.608Z,99540.59
2022-10-01T21:01:24.875Z,99549.31
2022-10-01T21:04:06.332Z,99560.16
2022-10-01T21:06:37.934Z,99560.22
2022-10-01T21:09:16.012Z,99563.84
2022-10-01T21:11:52.375Z,99564.69
2022-10-01T21:14:26.868Z,99569.22
2022-10-01T21:17:20.235Z,99566.59
2022-10-01T21:20:09.000Z,99570.28
2022-10-01T21:22:48.151Z,99579.69
2022-10-01T21:25:23.178Z,99571.66
2022-10-01T21:28:39.830Z,99566.31
2022-10-01T21:31:27.781Z,99569.78
2022-10-01T21:34:03.081Z,99568.75
2022-10-01T21:36:55.916Z,99564.19
2022-10-01T21:39:56.940Z,99558.25
2022-10-01T21:42:38.178Z,99553.66
2022-10-01T21:45:10.356Z,99569.84
2022-10-01T21:48:00.510Z,99576.22
2022-10-01T21:50:36.056Z,99579.41
2022-10-01T21:53:44.864Z,99573.22
2022-10-01T21:56:24.111Z,99569.50
2022-10-01T21:59:16.867Z,99565.84
2022-10-01T22:02:09.331Z,99567.56
2022-10-01T22:04:40.079Z,99563.41
2022-10-01T22:07:18.374Z,99566.09
2022-10-01T22:10:04.139Z,99572.75
2022-10-01T22:12:34.147Z,99578.53
2022-10-01T22:15:03.899Z,99574.25
2022-10-01T22:17:33.236Z,99570.31
2022-10-01T22:20:03.420Z,99571.00
2022-10-01T22:22:38.514Z,99584.38
2022-10-01T22:25:07.261Z,99591.63
2022-10-01T22:27:44.112Z,99590.72
2022-10-01T22:30:15.140Z,99587.91
2022-10-01T22:32:51.604Z,99592.16
2022-10-01T22:35:24.917Z,99589.63
2022-10-01T22:37:58.875Z,99587.22
2022-10-01T22:40:32.981Z,99594.25
2022-10-01T22:43:10.954Z,99606.53
2022-10-01T22:45:45.491Z,99608.47
2022-10-01T22:48:50.599Z,99603.16
2022-10-01T22:51:34.936Z,99602.69
2022-10-01T22:54:06.802Z,99616.81
2022-10-01T22:57:08.469Z,99624.56
2022-10-01T23:00:01.080Z,99620.16
2022-10-01T23:03:11.411Z,99626.16
2022-10-01T23:05:52.223Z,99623.97
2022-10-01T23:08:51.785Z,99625.56
2022-10-01T23:11:40.928Z,99624.53
2022-10-01T23:14:29.600Z,99604.72
2022-10-01T23:16:59.799Z,99606.59
2022-10-01T23:19:54.097Z,99605.88
2022-10-01T23:22:36.812Z,99603.63
2022-10-01T23:25:15.748Z,99588.87
2022-10-01T23:28:06.603Z,99596.37
2022-10-01T23:30:52.552Z,99594.16
2022-10-01T23:33:59.159Z,99582.87
2022-10-01T23:36:48.297Z,99589.28
2022-10-01T23:39:51.391Z,99594.25
2022-10-01T23:42:27.893Z,99592.53
2022-10-01T23:45:05.065Z,99597.31
2022-10-01T23:47:38.054Z,99602.34
2022-10-01T23:50:06.865Z,99609.50
2022-10-01T23:52:41.288Z,99610.91
2022-10-01T23:55:37.018Z,99609.66
2022-10-01T23:58:07.924Z,99609.94
